Cotes De Bretagne — FW3973 — position and weather

sailwx.info

Track history (hours):
 
Tides and Currents Weather Stations Pressure Air Temp Water Temp Dewpoint Dewpoint Depression Visibility Wind Speed Wind Dir Waves Ship Positions

Cotes De Bretagne

Last reported at 2015-Mar-02 11:33 UTC. Time now 2015-Mar-02 16:32 UTC.
Position N 47°50' W 004°06'.

Length 75 m; draft 4.2 m.

Type: Dredging. MMSI: 227003850.

Date/timePositionNaut miles runAvg speedWind from/ knotsBaromVisibWave heightAir tempDewpointWater temp
2015-Mar-02 11:33N 47°50' W 004°06'7 7.1
2015-Mar-02 10:33N 47°46' W 003°57'17 8.3
2015-Mar-02 08:30N 47°37' W 003°36'7 7.3
2015-Mar-02 07:33N 47°32' W 003°28'7 7.2
2015-Mar-02 06:33N 47°27' W 003°20'10 7.7
2015-Mar-02 05:17N 47°22' W 003°08'57 7.4
2015-Mar-01 21:30N 46°41' W 002°10'7 7.9
2015-Mar-01 20:33N 46°35' W 002°02'8 7.8
2015-Mar-01 19:34N 46°29' W 001°55'8 7.8
2015-Mar-01 18:34N 46°24' W 001°47'2 1.8
2015-Mar-01 17:33N 46°22' W 001°45'0 0.1
2015-Mar-01 16:33N 46°22' W 001°45'1 1.3
2015-Mar-01 15:33N 46°23' W 001°47'1110.5
2015-Mar-01 14:33N 46°31' W 001°57'1110.8
2015-Mar-01 13:32N 46°39' W 002°08'5610.6
2015-Mar-01 08:14N 47°21' W 003°02'710.7
2015-Mar-01 07:34N 47°27' W 003°09'1010.4
2015-Mar-01 06:33N 47°36' W 003°17'9 9.0
2015-Mar-01 05:33N 47°44' W 003°21'0 0.0
2015-Mar-01 04:33N 47°44' W 003°21'0 0.0
2015-Mar-01 03:33N 47°44' W 003°21'0 0.0
2015-Mar-01 02:33N 47°44' W 003°21'0 0.0
2015-Mar-01 01:33N 47°44' W 003°21'0 0.0
2015-Mar-01 00:33N 47°44' W 003°21'0 0.0
2015-Feb-28 23:33N 47°44' W 003°21'0 0.0
2015-Feb-28 22:33N 47°44' W 003°21'0 0.0
2015-Feb-28 21:33N 47°44' W 003°21'0 0.0
2015-Feb-28 20:33N 47°44' W 003°21'0 0.0
2015-Feb-28 19:33N 47°44' W 003°21'0 0.0
2015-Feb-28 18:33N 47°44' W 003°21'0 0.0
2015-Feb-28 17:33N 47°44' W 003°21'0 0.0
2015-Feb-28 16:34N 47°44' W 003°21'0 0.0
2015-Feb-28 15:33N 47°44' W 003°21'0 0.0
2015-Feb-28 14:33N 47°44' W 003°21'1 1.4
2015-Feb-28 13:34N 47°45' W 003°19'0 0.0
2015-Feb-28 12:33N 47°45' W 003°19'0 0.0
2015-Feb-28 11:33N 47°45' W 003°19'2 1.6
2015-Feb-28 10:33N 47°44' W 003°21'0 0.0
2015-Feb-28 09:34N 47°44' W 003°21'0 0.0
2015-Feb-28 08:34N 47°44' W 003°21'0 0.0
2015-Feb-28 07:34N 47°44' W 003°21'0 0.0
2015-Feb-28 06:33N 47°44' W 003°21'0 0.0
2015-Feb-28 05:33N 47°44' W 003°21'0 0.0
2015-Feb-28 04:34N 47°44' W 003°21'0 0.0
2015-Feb-28 03:33N 47°44' W 003°21'0 0.0
2015-Feb-28 02:34N 47°44' W 003°21'0 0.0
2015-Feb-28 01:33N 47°44' W 003°21'5 5.3
2015-Feb-28 00:34N 47°39' W 003°22'9 8.7
2015-Feb-27 23:33N 47°32' W 003°14'63 8.5
2015-Feb-27 16:10N 46°44' W 002°14'6 8.7
2015-Feb-27 15:30N 46°39' W 002°08'8 8.3
2015-Feb-27 14:33N 46°34' W 002°00'8 8.1
2015-Feb-27 13:33N 46°28' W 001°52'7 7.3
2015-Feb-27 12:33N 46°22' W 001°45'0 0.3
2015-Feb-27 11:33N 46°22' W 001°45'0 0.3
2015-Feb-27 10:33N 46°22' W 001°45'5 5.0
2015-Feb-27 09:33N 46°25' W 001°50'1111.2
2015-Feb-27 08:33N 46°34' W 002°01'6710.9
2015-Feb-27 02:23N 47°24' W 003°07'910.7
2015-Feb-27 01:34N 47°31' W 003°14'1110.8
2015-Feb-27 00:34N 47°41' W 003°22'5 4.6
2015-Feb-26 23:33N 47°45' W 003°19'0 0.0
2015-Feb-26 22:33N 47°45' W 003°19'0 0.0
2015-Feb-26 21:33N 47°45' W 003°19'1 1.4
2015-Feb-26 20:33N 47°44' W 003°21'0 0.0
2015-Feb-26 19:33N 47°44' W 003°21'0 0.0
2015-Feb-26 18:33N 47°44' W 003°21'0 0.0
2015-Feb-26 17:34N 47°44' W 003°21'0 0.0
2015-Feb-26 16:34N 47°44' W 003°21'0 0.0
2015-Feb-26 15:33N 47°44' W 003°21'0 0.0
2015-Feb-26 14:33N 47°44' W 003°21'0 0.0
2015-Feb-26 13:33N 47°44' W 003°21'5 5.1
2015-Feb-26 12:34N 47°39' W 003°21'8 8.3
2015-Feb-26 11:33N 47°32' W 003°15'66 8.3
2015-Feb-26 03:33N 46°42' W 002°11'9 8.6
2015-Feb-26 02:33N 46°36' W 002°03'8 8.3
2015-Feb-26 01:33N 46°30' W 001°54'8 8.1
2015-Feb-26 00:33N 46°24' W 001°46'2 1.8
2015-Feb-25 23:33N 46°22' W 001°44'0 0.1
2015-Feb-25 22:33N 46°22' W 001°44'1 1.4
2015-Feb-25 21:33N 46°23' W 001°46'1110.7
2015-Feb-25 20:33N 46°31' W 001°57'1111.0
2015-Feb-25 19:33N 46°39' W 002°07'6710.7
2015-Feb-25 13:14N 47°27' W 003°17'710.7
2015-Feb-25 12:33N 47°31' W 003°26'1210.9
2015-Feb-25 11:30N 47°38' W 003°39'1011.0
2015-Feb-25 10:33N 47°45' W 003°51'1110.9
2015-Feb-25 09:33N 47°50' W 004°05'8 0.9
2015-Feb-25 00:33N 47°58' W 004°06'0 0.0
2015-Feb-24 18:33N 47°58' W 004°06'0 0.0
2015-Feb-23 20:33N 47°58' W 004°06'5 0.9
2015-Feb-23 15:33N 47°54' W 004°08'0 0.0
2015-Feb-23 12:34N 47°54' W 004°08'3 0.6
2015-Feb-23 07:33N 47°51' W 004°06'17 8.4
2015-Feb-23 05:33N 47°42' W 003°45'11 8.1
2015-Feb-23 04:13N 47°35' W 003°33'6 7.7
2015-Feb-23 03:27N 47°32' W 003°26'8 7.2
2015-Feb-23 02:20N 47°26' W 003°17'68 7.8
2015-Feb-22 17:33N 46°37' W 002°07'8 8.2
2015-Feb-22 16:33N 46°30' W 002°01'8 8.4
2015-Feb-22 15:33N 46°23' W 001°53'9 8.7
2015-Feb-22 14:33N 46°16' W 001°46'11 2.1
2015-Feb-22 09:07N 46°07' W 001°37'5 9.9
2015-Feb-22 08:33N 46°11' W 001°42'1010.4
2015-Feb-22 07:34N 46°20' W 001°50'1010.4
2015-Feb-22 06:33N 46°28' W 001°59'1110.6
2015-Feb-22 05:34N 46°37' W 002°07'71 9.8
2015-Feb-21 22:18N 47°28' W 003°20'7 9.7
2015-Feb-21 21:32N 47°33' W 003°29'3010.1
2015-Feb-21 18:33N 47°50' W 004°05'8 1.2
2015-Feb-21 11:33N 47°58' W 004°06'0 0.0
2015-Feb-21 01:33N 47°58' W 004°06'0 0.0
2015-Feb-20 23:33N 47°58' W 004°06'3 0.5
2015-Feb-20 17:33N 47°56' W 004°08'8 7.9
2015-Feb-20 16:33N 47°49' W 004°03'24 8.0
2015-Feb-20 13:31N 47°35' W 003°33'7 7.3
2015-Feb-20 12:33N 47°31' W 003°24'  
Track history (hours):
 
Tides and Currents Weather Stations Pressure Air Temp Water Temp Dewpoint Dewpoint Depression Visibility Wind Speed Wind Dir Waves Ship Positions

Cotes De Bretagne

Last reported at 2015-Mar-02 11:33 UTC. Time now 2015-Mar-02 16:32 UTC.
Position N 47°50' W 004°06'.

Length 75 m; draft 4.2 m.

Type: Dredging. MMSI: 227003850.

Date/timePositionNaut miles runAvg speedWind from/ knotsBaromVisibWave heightAir tempDewpointWater temp
2015-Mar-02 11:33N 47°50' W 004°06'7 7.1
2015-Mar-02 10:33N 47°46' W 003°57'17 8.3
2015-Mar-02 08:30N 47°37' W 003°36'7 7.3
2015-Mar-02 07:33N 47°32' W 003°28'7 7.2
2015-Mar-02 06:33N 47°27' W 003°20'10 7.7
2015-Mar-02 05:17N 47°22' W 003°08'57 7.4
2015-Mar-01 21:30N 46°41' W 002°10'7 7.9
2015-Mar-01 20:33N 46°35' W 002°02'8 7.8
2015-Mar-01 19:34N 46°29' W 001°55'8 7.8
2015-Mar-01 18:34N 46°24' W 001°47'2 1.8
2015-Mar-01 17:33N 46°22' W 001°45'0 0.1
2015-Mar-01 16:33N 46°22' W 001°45'1 1.3
2015-Mar-01 15:33N 46°23' W 001°47'1110.5
2015-Mar-01 14:33N 46°31' W 001°57'1110.8
2015-Mar-01 13:32N 46°39' W 002°08'5610.6
2015-Mar-01 08:14N 47°21' W 003°02'710.7
2015-Mar-01 07:34N 47°27' W 003°09'1010.4
2015-Mar-01 06:33N 47°36' W 003°17'9 9.0
2015-Mar-01 05:33N 47°44' W 003°21'0 0.0
2015-Mar-01 04:33N 47°44' W 003°21'0 0.0
2015-Mar-01 03:33N 47°44' W 003°21'0 0.0
2015-Mar-01 02:33N 47°44' W 003°21'0 0.0
2015-Mar-01 01:33N 47°44' W 003°21'0 0.0
2015-Mar-01 00:33N 47°44' W 003°21'0 0.0
2015-Feb-28 23:33N 47°44' W 003°21'0 0.0
2015-Feb-28 22:33N 47°44' W 003°21'0 0.0
2015-Feb-28 21:33N 47°44' W 003°21'0 0.0
2015-Feb-28 20:33N 47°44' W 003°21'0 0.0
2015-Feb-28 19:33N 47°44' W 003°21'0 0.0
2015-Feb-28 18:33N 47°44' W 003°21'0 0.0
2015-Feb-28 17:33N 47°44' W 003°21'0 0.0
2015-Feb-28 16:34N 47°44' W 003°21'0 0.0
2015-Feb-28 15:33N 47°44' W 003°21'0 0.0
2015-Feb-28 14:33N 47°44' W 003°21'1 1.4
2015-Feb-28 13:34N 47°45' W 003°19'0 0.0
2015-Feb-28 12:33N 47°45' W 003°19'0 0.0
2015-Feb-28 11:33N 47°45' W 003°19'2 1.6
2015-Feb-28 10:33N 47°44' W 003°21'0 0.0
2015-Feb-28 09:34N 47°44' W 003°21'0 0.0
2015-Feb-28 08:34N 47°44' W 003°21'0 0.0
2015-Feb-28 07:34N 47°44' W 003°21'0 0.0
2015-Feb-28 06:33N 47°44' W 003°21'0 0.0
2015-Feb-28 05:33N 47°44' W 003°21'0 0.0
2015-Feb-28 04:34N 47°44' W 003°21'0 0.0
2015-Feb-28 03:33N 47°44' W 003°21'0 0.0
2015-Feb-28 02:34N 47°44' W 003°21'0 0.0
2015-Feb-28 01:33N 47°44' W 003°21'5 5.3
2015-Feb-28 00:34N 47°39' W 003°22'9 8.7
2015-Feb-27 23:33N 47°32' W 003°14'63 8.5
2015-Feb-27 16:10N 46°44' W 002°14'6 8.7
2015-Feb-27 15:30N 46°39' W 002°08'8 8.3
2015-Feb-27 14:33N 46°34' W 002°00'8 8.1
2015-Feb-27 13:33N 46°28' W 001°52'7 7.3
2015-Feb-27 12:33N 46°22' W 001°45'0 0.3
2015-Feb-27 11:33N 46°22' W 001°45'0 0.3
2015-Feb-27 10:33N 46°22' W 001°45'5 5.0
2015-Feb-27 09:33N 46°25' W 001°50'1111.2
2015-Feb-27 08:33N 46°34' W 002°01'6710.9
2015-Feb-27 02:23N 47°24' W 003°07'910.7
2015-Feb-27 01:34N 47°31' W 003°14'1110.8
2015-Feb-27 00:34N 47°41' W 003°22'5 4.6
2015-Feb-26 23:33N 47°45' W 003°19'0 0.0
2015-Feb-26 22:33N 47°45' W 003°19'0 0.0
2015-Feb-26 21:33N 47°45' W 003°19'1 1.4
2015-Feb-26 20:33N 47°44' W 003°21'0 0.0
2015-Feb-26 19:33N 47°44' W 003°21'0 0.0
2015-Feb-26 18:33N 47°44' W 003°21'0 0.0
2015-Feb-26 17:34N 47°44' W 003°21'0 0.0
2015-Feb-26 16:34N 47°44' W 003°21'0 0.0
2015-Feb-26 15:33N 47°44' W 003°21'0 0.0
2015-Feb-26 14:33N 47°44' W 003°21'0 0.0
2015-Feb-26 13:33N 47°44' W 003°21'5 5.1
2015-Feb-26 12:34N 47°39' W 003°21'8 8.3
2015-Feb-26 11:33N 47°32' W 003°15'66 8.3
2015-Feb-26 03:33N 46°42' W 002°11'9 8.6
2015-Feb-26 02:33N 46°36' W 002°03'8 8.3
2015-Feb-26 01:33N 46°30' W 001°54'8 8.1
2015-Feb-26 00:33N 46°24' W 001°46'2 1.8
2015-Feb-25 23:33N 46°22' W 001°44'0 0.1
2015-Feb-25 22:33N 46°22' W 001°44'1 1.4
2015-Feb-25 21:33N 46°23' W 001°46'1110.7
2015-Feb-25 20:33N 46°31' W 001°57'1111.0
2015-Feb-25 19:33N 46°39' W 002°07'6710.7
2015-Feb-25 13:14N 47°27' W 003°17'710.7
2015-Feb-25 12:33N 47°31' W 003°26'1210.9
2015-Feb-25 11:30N 47°38' W 003°39'1011.0
2015-Feb-25 10:33N 47°45' W 003°51'1110.9
2015-Feb-25 09:33N 47°50' W 004°05'8 0.9
2015-Feb-25 00:33N 47°58' W 004°06'0 0.0
2015-Feb-24 18:33N 47°58' W 004°06'0 0.0
2015-Feb-23 20:33N 47°58' W 004°06'5 0.9
2015-Feb-23 15:33N 47°54' W 004°08'0 0.0
2015-Feb-23 12:34N 47°54' W 004°08'3 0.6
2015-Feb-23 07:33N 47°51' W 004°06'17 8.4
2015-Feb-23 05:33N 47°42' W 003°45'11 8.1
2015-Feb-23 04:13N 47°35' W 003°33'6 7.7
2015-Feb-23 03:27N 47°32' W 003°26'8 7.2
2015-Feb-23 02:20N 47°26' W 003°17'68 7.8
2015-Feb-22 17:33N 46°37' W 002°07'8 8.2
2015-Feb-22 16:33N 46°30' W 002°01'8 8.4
2015-Feb-22 15:33N 46°23' W 001°53'9 8.7
2015-Feb-22 14:33N 46°16' W 001°46'11 2.1
2015-Feb-22 09:07N 46°07' W 001°37'5 9.9
2015-Feb-22 08:33N 46°11' W 001°42'1010.4
2015-Feb-22 07:34N 46°20' W 001°50'1010.4
2015-Feb-22 06:33N 46°28' W 001°59'1110.6
2015-Feb-22 05:34N 46°37' W 002°07'71 9.8
2015-Feb-21 22:18N 47°28' W 003°20'7 9.7
2015-Feb-21 21:32N 47°33' W 003°29'3010.1
2015-Feb-21 18:33N 47°50' W 004°05'8 1.2
2015-Feb-21 11:33N 47°58' W 004°06'0 0.0
2015-Feb-21 01:33N 47°58' W 004°06'0 0.0
2015-Feb-20 23:33N 47°58' W 004°06'3 0.5
2015-Feb-20 17:33N 47°56' W 004°08'8 7.9
2015-Feb-20 16:33N 47°49' W 004°03'24 8.0
2015-Feb-20 13:31N 47°35' W 003°33'7 7.3
2015-Feb-20 12:33N 47°31' W 003°24'  

Dump ship's entire track history